Time;durP1;ratioP1;P1;durP2;ratioP2;P2;SDS_P1;SDS_P2;PMS_P1;PMS_P2;Temp;Humidity;BMP_temperature;BMP_pressure;BME280_temperature;BME280_humidity;BME280_pressure;Samples;Min_cycle;Max_cycle;Signal;HPM_P1;HPM_P2
2023/10/23 00:03:44;;;;;;;2.57;2.37;;;13.30;37.70;;;;;;10389213;28;20309;-75
2023/10/23 00:08:47;;;;;;;3.30;3.00;;;13.30;37.90;;;;;;10381221;28;20263;-74
2023/10/23 00:13:50;;;;;;;3.27;2.80;;;13.30;37.70;;;;;;10388606;28;20928;-74
2023/10/23 00:18:55;;;;;;;3.10;2.90;;;13.30;37.60;;;;;;10396011;28;20237;-74
2023/10/23 00:23:58;;;;;;;4.00;2.60;;;13.30;37.80;;;;;;10387794;28;20233;-73
2023/10/23 00:29:01;;;;;;;3.53;2.70;;;13.30;37.40;;;;;;10390298;28;20576;-74
2023/10/23 00:34:06;;;;;;;2.87;2.67;;;13.30;37.60;;;;;;10391903;28;20320;-74
2023/10/23 00:39:09;;;;;;;2.87;2.50;;;13.20;37.80;;;;;;10386323;28;20729;-73
2023/10/23 00:44:12;;;;;;;3.07;2.87;;;13.20;37.60;;;;;;10391291;28;20241;-72
2023/10/23 00:49:18;;;;;;;3.40;3.10;;;13.10;37.60;;;;;;10389130;28;20236;-72
2023/10/23 00:54:22;;;;;;;3.43;2.70;;;12.90;38.00;;;;;;10386203;28;20321;-73
2023/10/23 00:59:25;;;;;;;3.63;2.80;;;12.80;38.20;;;;;;10392102;28;20240;-73
2023/10/23 01:04:30;;;;;;;3.70;2.50;;;12.70;38.20;;;;;;10381692;28;20336;-75
2023/10/23 01:09:33;;;;;;;3.00;2.70;;;12.80;38.50;;;;;;10388017;28;20231;-75
2023/10/23 01:14:36;;;;;;;2.70;2.50;;;12.80;38.30;;;;;;10389289;28;20271;-75
2023/10/23 01:19:41;;;;;;;4.03;2.70;;;12.80;38.30;;;;;;10388596;28;20222;-75
2023/10/23 01:24:48;;;;;;;2.73;2.53;;;12.80;38.50;;;;;;10392428;28;20225;-75
2023/10/23 01:29:53;;;;;;;2.70;2.50;;;12.80;38.50;;;;;;10386683;28;20222;-75
2023/10/23 01:34:56;;;;;;;3.80;2.50;;;12.90;38.60;;;;;;10386272;28;20256;-75
2023/10/23 01:39:59;;;;;;;3.27;2.73;;;12.90;38.30;;;;;;10394327;28;20333;-75
2023/10/23 01:45:05;;;;;;;2.80;2.50;;;12.90;38.40;;;;;;10394315;28;20590;-73
2023/10/23 01:50:09;;;;;;;3.47;2.40;;;12.90;38.50;;;;;;10385826;28;20229;-73
2023/10/23 01:55:12;;;;;;;2.87;2.50;;;12.90;38.40;;;;;;10394352;28;20234;-73
2023/10/23 02:00:17;;;;;;;2.60;2.40;;;12.90;38.10;;;;;;10387791;28;20218;-74
2023/10/23 02:05:20;;;;;;;2.30;2.17;;;12.90;38.20;;;;;;10392159;28;20221;-73
2023/10/23 02:10:24;;;;;;;2.50;2.30;;;13.00;38.10;;;;;;10398921;28;20235;-73
2023/10/23 02:15:28;;;;;;;2.30;2.10;;;12.80;37.90;;;;;;10389661;28;20229;-73
2023/10/23 02:20:31;;;;;;;2.27;2.07;;;12.90;38.10;;;;;;10391553;28;20234;-74
2023/10/23 02:25:34;;;;;;;2.60;1.90;;;12.90;38.00;;;;;;10391125;28;20253;-73
2023/10/23 02:30:39;;;;;;;2.37;2.10;;;12.90;37.90;;;;;;10398918;28;20236;-74
2023/10/23 02:35:44;;;;;;;2.20;2.00;;;12.90;37.80;;;;;;10389569;28;20222;-73
2023/10/23 02:40:54;;;;;;;2.70;2.50;;;12.80;37.70;;;;;;10389798;28;20320;-73
2023/10/23 02:46:02;;;;;;;2.60;2.40;;;12.80;37.90;;;;;;10388185;28;20266;-73
2023/10/23 02:51:05;;;;;;;2.60;2.40;;;12.80;37.90;;;;;;10388759;28;20611;-73
2023/10/23 02:56:11;;;;;;;2.60;2.40;;;12.70;37.60;;;;;;10390697;28;20234;-74
2023/10/23 03:01:17;;;;;;;5.60;2.90;;;12.70;37.70;;;;;;10386925;28;20308;-73
2023/10/23 03:06:21;;;;;;;2.60;2.40;;;12.60;37.40;;;;;;10390256;28;20225;-73
2023/10/23 03:11:24;;;;;;;2.43;2.23;;;12.60;37.40;;;;;;10392487;28;20234;-72
2023/10/23 03:16:29;;;;;;;2.60;2.40;;;12.50;37.40;;;;;;10383499;28;20225;-73
2023/10/23 03:21:32;;;;;;;2.90;2.30;;;12.50;37.60;;;;;;10388795;28;20240;-74
2023/10/23 03:26:36;;;;;;;2.50;2.30;;;12.40;37.50;;;;;;10391427;28;20225;-75
2023/10/23 03:31:40;;;;;;;2.73;2.53;;;12.40;37.60;;;;;;10388643;28;20225;-75
2023/10/23 03:36:43;;;;;;;3.63;2.93;;;12.40;37.70;;;;;;10394646;28;20256;-75
2023/10/23 03:41:47;;;;;;;2.80;2.60;;;12.40;37.60;;;;;;10383679;28;20222;-75
2023/10/23 03:46:51;;;;;;;3.80;3.40;;;12.40;38.20;;;;;;10386127;28;20312;-75
2023/10/23 03:51:55;;;;;;;6.23;5.63;;;12.30;37.40;;;;;;10393093;28;20237;-75
2023/10/23 03:56:58;;;;;;;4.60;4.20;;;12.20;37.40;;;;;;10392980;28;20221;-74
2023/10/23 04:02:03;;;;;;;4.57;3.33;;;12.10;37.50;;;;;;10386847;28;20712;-73
2023/10/23 04:07:06;;;;;;;4.40;4.00;;;12.00;37.60;;;;;;10390657;28;20244;-73
2023/10/23 04:12:09;;;;;;;4.40;4.00;;;12.00;37.50;;;;;;10384292;28;21196;-73
2023/10/23 04:17:14;;;;;;;4.83;4.43;;;11.90;37.60;;;;;;10389302;28;20248;-73
2023/10/23 04:22:17;;;;;;;5.23;4.83;;;11.90;37.70;;;;;;10386540;28;20271;-73
2023/10/23 04:27:21;;;;;;;5.67;5.17;;;11.80;37.60;;;;;;10384400;28;20669;-74
2023/10/23 04:32:26;;;;;;;6.00;5.43;;;11.80;37.70;;;;;;10390959;28;20241;-75
2023/10/23 04:37:29;;;;;;;5.63;5.13;;;11.80;37.80;;;;;;10384058;28;20738;-73
2023/10/23 04:42:32;;;;;;;11.60;10.50;;;11.80;37.70;;;;;;10388728;28;20279;-72
2023/10/23 04:47:37;;;;;;;14.63;13.13;;;11.80;37.60;;;;;;10390914;28;20822;-72
2023/10/23 04:52:40;;;;;;;10.10;9.10;;;11.70;37.50;;;;;;10389301;28;20302;-72
2023/10/23 04:57:45;;;;;;;7.03;6.40;;;11.70;37.50;;;;;;10390264;28;20707;-72
2023/10/23 05:02:49;;;;;;;5.37;4.93;;;11.70;37.60;;;;;;10389323;28;20711;-72
2023/10/23 05:07:53;;;;;;;4.87;4.43;;;11.60;37.30;;;;;;10386623;28;20300;-73
2023/10/23 05:13:10;;;;;;;4.80;4.40;;;11.60;37.40;;;;;;10386828;28;20320;-75
2023/10/23 05:18:15;;;;;;;5.13;4.67;;;11.50;37.20;;;;;;10397664;28;20232;-72
2023/10/23 05:23:18;;;;;;;4.57;4.20;;;11.40;37.70;;;;;;10393459;28;20861;-76
2023/10/23 05:28:21;;;;;;;4.13;3.73;;;11.30;37.70;;;;;;10401523;28;20742;-75
2023/10/23 05:33:26;;;;;;;3.07;2.73;;;11.30;37.70;;;;;;10397505;28;20237;-73
2023/10/23 05:38:29;;;;;;;3.23;2.70;;;11.20;37.60;;;;;;10391248;28;20651;-74
2023/10/23 05:43:32;;;;;;;2.60;2.40;;;11.20;37.40;;;;;;10391067;28;21471;-73
2023/10/23 05:48:37;;;;;;;2.47;2.27;;;11.20;37.50;;;;;;10400698;28;20225;-74
2023/10/23 05:53:40;;;;;;;2.00;1.90;;;11.10;37.50;;;;;;10400190;28;20710;-74
2023/10/23 05:58:44;;;;;;;1.90;1.80;;;11.10;37.50;;;;;;10395423;28;20240;-73
2023/10/23 06:03:49;;;;;;;1.90;1.80;;;11.10;37.40;;;;;;10399682;28;20265;-74
2023/10/23 06:08:53;;;;;;;1.80;1.70;;;11.00;37.60;;;;;;10393907;28;20227;-75
2023/10/23 06:13:58;;;;;;;3.47;2.17;;;11.00;37.60;;;;;;10394291;28;20236;-74
2023/10/23 06:19:05;;;;;;;3.67;2.10;;;11.00;37.90;;;;;;10392597;28;20313;-74
2023/10/23 06:24:09;;;;;;;2.30;2.10;;;11.00;37.90;;;;;;10395822;28;20226;-74
2023/10/23 06:29:12;;;;;;;2.37;2.20;;;11.00;37.90;;;;;;10393911;28;20240;-74
2023/10/23 06:34:16;;;;;;;2.83;2.50;;;11.00;38.00;;;;;;10389449;28;20230;-75
2023/10/23 06:39:19;;;;;;;2.60;2.40;;;11.00;38.30;;;;;;10393578;28;20792;-75
2023/10/23 06:44:24;;;;;;;3.03;2.83;;;11.00;38.20;;;;;;10395398;28;20241;-75
2023/10/23 06:49:29;;;;;;;4.17;3.87;;;11.00;38.40;;;;;;10390643;28;20280;-75
2023/10/23 06:54:32;;;;;;;5.40;4.00;;;11.00;38.50;;;;;;10394700;28;20240;-75
2023/10/23 06:59:36;;;;;;;4.50;4.10;;;11.10;38.50;;;;;;10388492;28;20229;-73
2023/10/23 07:04:41;;;;;;;5.00;4.60;;;11.20;38.70;;;;;;10374664;28;20316;-73
2023/10/23 07:09:45;;;;;;;5.00;4.60;;;11.20;38.90;;;;;;10377625;28;21043;-73
2023/10/23 07:14:48;;;;;;;4.57;4.23;;;11.30;38.90;;;;;;10385815;28;20858;-73
2023/10/23 07:19:53;;;;;;;5.83;4.43;;;11.40;39.10;;;;;;10380432;28;20222;-73
2023/10/23 07:24:56;;;;;;;4.00;3.70;;;11.40;39.40;;;;;;10377463;28;20241;-74
2023/10/23 07:30:00;;;;;;;3.77;3.47;;;11.50;39.40;;;;;;10376253;28;21200;-73
2023/10/23 07:35:05;;;;;;;3.33;3.07;;;11.60;39.70;;;;;;10382584;28;20313;-73
2023/10/23 07:40:09;;;;;;;2.90;2.70;;;11.70;40.20;;;;;;10383627;28;20896;-73
2023/10/23 07:45:12;;;;;;;4.30;2.97;;;11.90;40.30;;;;;;10393916;28;20218;-73
2023/10/23 07:50:17;;;;;;;4.00;3.20;;;12.10;40.50;;;;;;10388509;28;20240;-74
2023/10/23 07:55:20;;;;;;;3.13;2.60;;;12.30;41.00;;;;;;10391118;28;20226;-75
2023/10/23 08:00:23;;;;;;;2.90;2.70;;;12.50;41.60;;;;;;10390234;28;20256;-76
2023/10/23 08:05:28;;;;;;;3.57;2.63;;;12.70;41.00;;;;;;10383142;28;20276;-76
2023/10/23 08:10:31;;;;;;;2.67;2.30;;;13.00;41.40;;;;;;10387215;28;20754;-76
2023/10/23 08:15:34;;;;;;;3.70;2.67;;;13.20;41.20;;;;;;10388265;28;20302;-76
2023/10/23 08:20:39;;;;;;;2.80;2.33;;;13.50;41.40;;;;;;10382791;28;20236;-76
2023/10/23 08:25:44;;;;;;;3.33;2.60;;;13.80;41.60;;;;;;10389476;28;20221;-76
2023/10/23 08:30:47;;;;;;;4.30;2.70;;;14.10;42.10;;;;;;10387221;28;20911;-73
2023/10/23 08:35:51;;;;;;;2.57;2.37;;;14.40;41.50;;;;;;10383199;28;20233;-73
2023/10/23 08:40:55;;;;;;;2.20;2.07;;;14.60;41.40;;;;;;10392529;28;20708;-73
2023/10/23 08:46:00;;;;;;;3.50;2.47;;;14.80;40.80;;;;;;10384835;28;20324;-73
2023/10/23 08:51:08;;;;;;;2.27;2.03;;;15.00;40.80;;;;;;10398382;28;20241;-73
2023/10/23 08:56:11;;;;;;;2.43;2.23;;;15.10;40.80;;;;;;10394150;28;20225;-73
2023/10/23 09:01:16;;;;;;;2.33;2.13;;;15.20;40.70;;;;;;10395951;28;20234;-73
2023/10/23 09:06:21;;;;;;;2.70;2.50;;;15.30;41.10;;;;;;10398270;28;20245;-73
2023/10/23 09:11:38;;;;;;;3.00;2.70;;;15.50;41.50;;;;;;10399365;28;20236;-73
2023/10/23 09:16:41;;;;;;;3.27;2.60;;;15.70;41.80;;;;;;10394153;28;20213;-73
2023/10/23 09:21:47;;;;;;;3.53;2.67;;;16.00;41.30;;;;;;10394580;28;20315;-73
2023/10/23 09:26:51;;;;;;;2.90;2.43;;;16.20;41.40;;;;;;10379662;28;20217;-72
2023/10/23 09:31:55;;;;;;;2.40;2.20;;;16.40;41.20;;;;;;10378976;28;20228;-72
2023/10/23 09:37:01;;;;;;;3.57;1.80;;;16.60;41.00;;;;;;10376574;28;20727;-72
2023/10/23 09:42:08;;;;;;;1.40;1.30;;;16.80;40.40;;;;;;10388710;28;20229;-75
2023/10/23 09:47:13;;;;;;;3.00;1.40;;;16.90;39.90;;;;;;10390359;28;20322;-75
2023/10/23 09:52:23;;;;;;;1.97;1.60;;;17.00;39.70;;;;;;10391553;28;20244;-73
2023/10/23 09:57:34;;;;;;;2.43;1.70;;;17.10;39.40;;;;;;10390017;28;20226;-73
2023/10/23 10:02:38;;;;;;;2.03;1.50;;;17.30;39.50;;;;;;10393376;28;20738;-72
2023/10/23 10:07:50;;;;;;;1.50;1.20;;;17.50;40.00;;;;;;10389288;28;20230;-72
2023/10/23 10:12:56;;;;;;;1.97;1.20;;;17.70;39.40;;;;;;10388612;28;20664;-73
2023/10/23 10:17:59;;;;;;;2.00;1.37;;;17.90;38.90;;;;;;10392743;28;20233;-72
2023/10/23 10:23:08;;;;;;;1.53;1.20;;;18.10;38.90;;;;;;10388541;28;20332;-73
2023/10/23 10:28:11;;;;;;;1.70;1.50;;;18.10;37.90;;;;;;10389602;28;20217;-72
2023/10/23 10:33:21;;;;;;;2.17;1.30;;;18.30;38.10;;;;;;10391064;28;20307;-73
2023/10/23 10:38:46;;;;;;;3.13;2.13;;;18.30;36.70;;;;;;10389756;28;20213;-72
2023/10/23 10:43:53;;;;;;;2.00;1.63;;;18.40;36.20;;;;;;10388512;28;20229;-72
2023/10/23 10:48:57;;;;;;;2.07;1.50;;;18.40;36.10;;;;;;10389018;28;20238;-73
2023/10/23 10:54:06;;;;;;;3.03;1.60;;;18.40;36.60;;;;;;10387477;28;20230;-73
2023/10/23 10:59:09;;;;;;;3.53;2.10;;;18.40;36.40;;;;;;10388886;28;20233;-73
2023/10/23 11:04:12;;;;;;;2.63;2.17;;;18.50;36.80;;;;;;10392330;28;20248;-72
2023/10/23 11:09:20;;;;;;;3.23;1.90;;;18.50;36.80;;;;;;10388885;28;20221;-72
2023/10/23 11:14:25;;;;;;;3.30;1.80;;;18.60;35.50;;;;;;10388065;28;20237;-73
2023/10/23 11:19:29;;;;;;;2.10;1.90;;;18.70;36.20;;;;;;10379218;28;20236;-74
2023/10/23 11:24:34;;;;;;;2.30;1.57;;;18.80;36.30;;;;;;10383966;28;20251;-73
2023/10/23 11:29:41;;;;;;;4.43;1.50;;;18.80;35.50;;;;;;10385163;28;20230;-73
2023/10/23 11:34:45;;;;;;;1.70;1.57;;;18.80;35.50;;;;;;10383521;28;20222;-73
2023/10/23 11:39:50;;;;;;;1.70;1.57;;;18.80;36.00;;;;;;10383100;28;20221;-73
2023/10/23 11:44:53;;;;;;;1.40;1.30;;;18.90;36.10;;;;;;10381466;28;20222;-75
2023/10/23 11:50:01;;;;;;;1.80;1.50;;;18.90;35.90;;;;;;10380685;28;20226;-75
2023/10/23 11:55:08;;;;;;;1.67;1.40;;;19.00;35.60;;;;;;10372901;28;20847;-75
2023/10/23 12:00:13;;;;;;;2.83;1.53;;;19.00;35.60;;;;;;10385117;28;20231;-75
2023/10/23 12:05:18;;;;;;;2.07;1.50;;;19.10;35.70;;;;;;10383756;28;20253;-73
2023/10/23 12:10:24;;;;;;;2.33;1.50;;;19.10;35.70;;;;;;10381149;28;20233;-76
2023/10/23 12:15:28;;;;;;;2.83;1.70;;;19.20;35.80;;;;;;10381819;28;20234;-77
2023/10/23 12:20:32;;;;;;;3.03;1.50;;;19.20;35.80;;;;;;10383552;28;20830;-77
2023/10/23 12:25:37;;;;;;;1.47;1.23;;;19.30;35.90;;;;;;10378716;28;20257;-75
2023/10/23 12:30:40;;;;;;;1.17;1.17;;;19.30;35.80;;;;;;10384255;28;20239;-73
2023/10/23 12:35:43;;;;;;;1.67;1.23;;;19.30;35.90;;;;;;10383251;28;20226;-73
2023/10/23 12:40:49;;;;;;;1.53;1.20;;;19.30;35.60;;;;;;10380937;28;20256;-73
2023/10/23 12:45:52;;;;;;;1.73;1.30;;;19.30;35.20;;;;;;10381533;28;20222;-74
2023/10/23 12:50:56;;;;;;;1.33;1.17;;;19.30;35.90;;;;;;10381834;28;20776;-74
2023/10/23 12:56:00;;;;;;;1.43;1.17;;;19.30;35.80;;;;;;10379945;28;21100;-74
2023/10/23 13:01:03;;;;;;;3.07;1.30;;;19.30;35.20;;;;;;10381344;28;20966;-74
2023/10/23 13:06:07;;;;;;;2.20;1.30;;;19.30;35.70;;;;;;10380697;28;20221;-73
2023/10/23 13:11:12;;;;;;;1.23;1.17;;;19.30;35.70;;;;;;10386477;28;20260;-73
2023/10/23 13:16:15;;;;;;;1.20;1.10;;;19.40;35.50;;;;;;10384232;28;20233;-73
2023/10/23 13:21:19;;;;;;;3.20;1.60;;;19.40;35.90;;;;;;10388116;28;20232;-73
2023/10/23 13:26:38;;;;;;;2.60;1.97;;;19.40;35.90;;;;;;10379649;28;20708;-73
2023/10/23 13:31:42;;;;;;;1.60;1.50;;;19.50;35.30;;;;;;10378238;28;20240;-72
2023/10/23 13:36:46;;;;;;;2.63;1.67;;;19.50;35.60;;;;;;10386753;28;20229;-73
2023/10/23 13:41:51;;;;;;;3.10;2.20;;;19.50;35.30;;;;;;10385899;28;20234;-71
2023/10/23 13:46:54;;;;;;;2.10;1.90;;;19.50;35.40;;;;;;10387196;28;20317;-71
2023/10/23 13:51:57;;;;;;;2.40;2.20;;;19.50;35.70;;;;;;10390572;28;20245;-74
2023/10/23 13:57:02;;;;;;;2.10;1.90;;;19.50;36.10;;;;;;10388759;28;20230;-72
2023/10/23 14:02:05;;;;;;;1.43;1.30;;;19.60;35.80;;;;;;10389340;28;20313;-76
2023/10/23 14:07:08;;;;;;;1.50;1.40;;;19.60;35.70;;;;;;10389929;28;20225;-76
2023/10/23 14:12:13;;;;;;;2.10;1.30;;;19.70;35.50;;;;;;10391167;28;20312;-74
2023/10/23 14:17:16;;;;;;;1.30;1.17;;;19.80;35.10;;;;;;10389530;28;20250;-74
2023/10/23 14:22:19;;;;;;;3.03;1.37;;;19.80;35.30;;;;;;10386288;28;20711;-74
2023/10/23 14:27:24;;;;;;;2.43;1.50;;;19.80;35.10;;;;;;10391123;28;20280;-72
2023/10/23 14:32:27;;;;;;;2.43;1.60;;;19.80;34.80;;;;;;10389389;28;20221;-73
2023/10/23 14:37:30;;;;;;;1.57;1.47;;;19.80;35.10;;;;;;10388857;28;20231;-73
2023/10/23 14:42:35;;;;;;;2.40;1.60;;;19.80;35.20;;;;;;10388308;28;21193;-72
2023/10/23 14:47:38;;;;;;;2.00;1.80;;;19.80;35.00;;;;;;10387872;28;20230;-72
2023/10/23 14:52:44;;;;;;;2.40;1.50;;;19.80;35.30;;;;;;10388442;28;20286;-72
2023/10/23 14:57:48;;;;;;;1.47;1.37;;;19.80;35.20;;;;;;10388811;28;20233;-72
2023/10/23 15:02:52;;;;;;;1.77;1.50;;;19.80;34.90;;;;;;10385989;28;20742;-77
2023/10/23 15:07:56;;;;;;;2.50;2.20;;;19.80;35.30;;;;;;10389233;28;20222;-76
2023/10/23 15:13:00;;;;;;;4.40;1.80;;;19.80;35.10;;;;;;10390169;28;20799;-77
2023/10/23 15:18:04;;;;;;;3.93;1.80;;;19.70;34.80;;;;;;10383343;28;20237;-73
2023/10/23 15:23:09;;;;;;;2.57;1.63;;;19.70;35.10;;;;;;10386296;28;20237;-73
2023/10/23 15:28:15;;;;;;;1.67;1.40;;;19.70;35.00;;;;;;10386927;28;20831;-73
2023/10/23 15:33:19;;;;;;;1.83;1.30;;;19.70;34.90;;;;;;10386615;28;20233;-73
2023/10/23 15:38:24;;;;;;;1.50;1.20;;;19.70;35.20;;;;;;10387318;28;20229;-76
2023/10/23 15:43:29;;;;;;;1.70;1.23;;;19.70;35.20;;;;;;10384203;28;20249;-73
2023/10/23 15:48:32;;;;;;;1.30;1.20;;;19.70;35.10;;;;;;10387686;28;20636;-73
2023/10/23 15:53:36;;;;;;;2.23;1.40;;;19.60;35.00;;;;;;10386446;28;20254;-73
2023/10/23 15:58:41;;;;;;;1.40;1.30;;;19.60;35.10;;;;;;10386044;28;20232;-72
2023/10/23 16:03:44;;;;;;;1.23;1.13;;;19.50;35.00;;;;;;10384775;28;20579;-73
2023/10/23 16:08:47;;;;;;;1.40;1.30;;;19.40;35.00;;;;;;10385146;28;20323;-73
2023/10/23 16:13:52;;;;;;;2.87;2.00;;;19.40;34.90;;;;;;10386814;28;20872;-73
2023/10/23 16:18:55;;;;;;;2.70;1.83;;;19.40;34.90;;;;;;10387280;28;20232;-73
2023/10/23 16:23:58;;;;;;;2.30;1.40;;;19.20;34.90;;;;;;10384481;28;20317;-73
2023/10/23 16:29:04;;;;;;;3.80;2.70;;;19.20;35.00;;;;;;10390380;28;20218;-73
2023/10/23 16:34:07;;;;;;;2.40;2.20;;;19.10;34.90;;;;;;10384985;28;20234;-73
2023/10/23 16:39:10;;;;;;;3.27;2.47;;;19.00;35.10;;;;;;10386227;28;20237;-72
2023/10/23 16:44:15;;;;;;;2.30;1.70;;;19.00;35.50;;;;;;10382725;28;20440;-72
2023/10/23 16:49:18;;;;;;;2.53;1.97;;;18.90;35.50;;;;;;10383005;28;20222;-72
2023/10/23 16:54:22;;;;;;;3.23;1.80;;;18.80;35.50;;;;;;10387485;28;20237;-71
2023/10/23 16:59:26;;;;;;;4.00;1.90;;;18.70;35.40;;;;;;10384986;28;20731;-71
2023/10/23 17:04:32;;;;;;;1.60;1.50;;;18.60;35.30;;;;;;10384681;28;20738;-75
2023/10/23 17:09:35;;;;;;;3.63;2.00;;;18.50;35.20;;;;;;10393159;28;20214;-75
2023/10/23 17:14:40;;;;;;;1.87;1.77;;;18.50;35.20;;;;;;10392461;28;20222;-71
2023/10/23 17:19:46;;;;;;;3.50;2.10;;;18.40;35.10;;;;;;10391298;28;20259;-72
2023/10/23 17:24:50;;;;;;;2.30;1.73;;;18.30;35.00;;;;;;10394195;28;20242;-72
2023/10/23 17:29:54;;;;;;;1.90;1.70;;;18.20;34.90;;;;;;10394770;28;20226;-71
2023/10/23 17:34:58;;;;;;;1.97;1.77;;;18.10;35.30;;;;;;10394986;28;20226;-72
2023/10/23 17:40:01;;;;;;;2.00;1.83;;;18.00;35.30;;;;;;10392138;28;20325;-71
2023/10/23 17:45:07;;;;;;;3.27;2.00;;;17.90;35.40;;;;;;10388750;28;20222;-72
2023/10/23 17:50:11;;;;;;;3.50;2.10;;;17.90;35.70;;;;;;10395754;28;20313;-71
2023/10/23 17:55:14;;;;;;;2.50;2.30;;;17.80;35.50;;;;;;10389339;28;20225;-72
2023/10/23 18:00:21;;;;;;;3.00;2.13;;;17.70;35.40;;;;;;10392637;28;20708;-71
2023/10/23 18:05:26;;;;;;;2.70;1.97;;;17.60;35.50;;;;;;10388351;28;20260;-71
2023/10/23 18:10:29;;;;;;;2.17;1.87;;;17.50;35.50;;;;;;10388226;28;20225;-71
2023/10/23 18:15:34;;;;;;;2.37;2.10;;;17.40;35.60;;;;;;10381005;28;20226;-71
2023/10/23 18:20:37;;;;;;;2.30;1.93;;;17.30;35.90;;;;;;10385770;28;20233;-72
2023/10/23 18:25:40;;;;;;;1.63;1.53;;;17.20;35.80;;;;;;10386370;28;20567;-72
2023/10/23 18:30:47;;;;;;;2.80;2.60;;;17.10;35.90;;;;;;10385523;28;20248;-76
2023/10/23 18:35:51;;;;;;;2.87;2.67;;;17.10;36.30;;;;;;10381024;28;20236;-75
2023/10/23 18:40:55;;;;;;;3.40;3.20;;;17.00;36.10;;;;;;10381382;28;20650;-76
2023/10/23 18:46:00;;;;;;;3.57;3.20;;;16.90;36.00;;;;;;10383918;28;20248;-75
2023/10/23 18:51:03;;;;;;;4.30;3.60;;;16.80;36.20;;;;;;10384261;28;20232;-75
2023/10/23 18:56:07;;;;;;;3.30;3.00;;;16.70;36.20;;;;;;10382586;28;20874;-76
2023/10/23 19:01:12;;;;;;;4.83;2.90;;;16.60;36.40;;;;;;10376794;28;20241;-75
2023/10/23 19:06:18;;;;;;;2.53;2.33;;;16.60;36.70;;;;;;10381577;28;21056;-76
2023/10/23 19:11:23;;;;;;;2.17;1.97;;;16.50;36.50;;;;;;10381290;28;20414;-76
2023/10/23 19:16:28;;;;;;;5.00;1.90;;;16.50;36.60;;;;;;10378234;28;20228;-76
2023/10/23 19:21:31;;;;;;;2.10;1.90;;;16.40;36.60;;;;;;10383272;28;20262;-76
2023/10/23 19:26:34;;;;;;;2.83;1.90;;;16.40;36.60;;;;;;10382649;28;20225;-75
2023/10/23 19:31:40;;;;;;;1.70;1.60;;;16.40;36.60;;;;;;10378702;28;20312;-75
2023/10/23 19:36:44;;;;;;;2.60;1.70;;;16.40;36.90;;;;;;10388082;28;20307;-71
2023/10/23 19:41:50;;;;;;;1.60;1.50;;;16.30;36.70;;;;;;10388726;28;20232;-72
2023/10/23 19:46:55;;;;;;;2.00;1.80;;;16.30;36.90;;;;;;10382604;28;20222;-72
2023/10/23 19:51:59;;;;;;;2.10;2.00;;;16.20;36.90;;;;;;10388264;28;20332;-72
2023/10/23 19:57:04;;;;;;;2.20;1.83;;;16.20;37.10;;;;;;10389463;28;20228;-73
2023/10/23 20:02:08;;;;;;;1.90;1.80;;;16.10;37.00;;;;;;10391662;28;20687;-73
2023/10/23 20:07:12;;;;;;;3.93;1.90;;;16.10;37.30;;;;;;10386701;28;20232;-75
2023/10/23 20:12:15;;;;;;;1.60;1.50;;;16.20;37.20;;;;;;10388256;28;20349;-75
2023/10/23 20:17:20;;;;;;;2.37;1.93;;;16.20;37.30;;;;;;10388650;28;20254;-73
2023/10/23 20:22:23;;;;;;;1.73;1.63;;;16.20;37.40;;;;;;10384060;28;20233;-72
2023/10/23 20:27:27;;;;;;;2.50;2.00;;;16.20;37.40;;;;;;10384638;28;20887;-72
2023/10/23 20:32:32;;;;;;;2.10;1.90;;;16.20;37.60;;;;;;10391808;28;20726;-72
2023/10/23 20:37:35;;;;;;;2.60;1.93;;;16.20;37.80;;;;;;10382372;28;20933;-72
2023/10/23 20:42:40;;;;;;;2.13;1.97;;;16.20;37.70;;;;;;10387106;28;20779;-71
2023/10/23 20:47:45;;;;;;;2.03;1.93;;;16.20;38.40;;;;;;10393666;28;20221;-71
2023/10/23 20:52:48;;;;;;;2.40;1.97;;;16.30;37.90;;;;;;10395655;28;20650;-72
2023/10/23 20:57:51;;;;;;;2.17;1.97;;;16.20;37.70;;;;;;10393860;28;20252;-72
2023/10/23 21:02:56;;;;;;;2.53;2.30;;;16.20;37.80;;;;;;10394194;28;20754;-72
2023/10/23 21:07:59;;;;;;;2.20;2.00;;;16.20;38.10;;;;;;10397328;28;20225;-72
2023/10/23 21:13:02;;;;;;;2.10;1.90;;;16.10;37.80;;;;;;10390343;28;20233;-72
2023/10/23 21:18:07;;;;;;;2.80;2.13;;;16.10;37.90;;;;;;10393976;28;20226;-72
2023/10/23 21:23:10;;;;;;;2.10;2.00;;;16.10;38.10;;;;;;10392135;28;20225;-73
2023/10/23 21:28:13;;;;;;;2.33;2.13;;;16.10;37.90;;;;;;10397078;28;20592;-72
2023/10/23 21:33:18;;;;;;;2.90;2.33;;;16.00;37.90;;;;;;10388993;28;20253;-72
2023/10/23 21:38:21;;;;;;;2.40;2.30;;;16.00;38.10;;;;;;10390406;28;20240;-72
2023/10/23 21:43:24;;;;;;;2.70;2.50;;;16.00;38.10;;;;;;10396449;28;20234;-72
2023/10/23 21:48:29;;;;;;;2.37;2.10;;;15.90;38.10;;;;;;10392776;28;20233;-73
2023/10/23 21:53:33;;;;;;;2.90;2.60;;;15.90;38.20;;;;;;10394058;28;20237;-72
2023/10/23 21:58:37;;;;;;;2.80;2.27;;;15.90;38.20;;;;;;10394750;28;20229;-72
2023/10/23 22:04:02;;;;;;;2.70;2.50;;;15.80;38.20;;;;;;10395042;28;20225;-73
2023/10/23 22:09:06;;;;;;;2.83;2.63;;;15.80;38.50;;;;;;10388806;28;20222;-72
2023/10/23 22:14:10;;;;;;;2.67;2.47;;;15.80;38.30;;;;;;10394830;28;20229;-72
2023/10/23 22:19:15;;;;;;;2.60;2.40;;;15.70;39.10;;;;;;10394636;28;20316;-72
2023/10/23 22:24:18;;;;;;;2.50;2.30;;;15.60;38.70;;;;;;10391892;28;20275;-72
2023/10/23 22:29:21;;;;;;;2.47;2.27;;;15.60;38.60;;;;;;10392559;28;20313;-72
2023/10/23 22:34:27;;;;;;;2.23;2.03;;;15.60;38.70;;;;;;10393002;28;20230;-71
2023/10/23 22:39:30;;;;;;;2.33;2.20;;;15.60;38.90;;;;;;10392288;28;20267;-72
2023/10/23 22:44:34;;;;;;;2.43;2.23;;;15.60;38.80;;;;;;10390431;28;20244;-72
2023/10/23 22:49:40;;;;;;;2.87;2.13;;;15.60;38.80;;;;;;10397595;28;20218;-72
2023/10/23 22:54:43;;;;;;;2.17;1.97;;;15.60;39.10;;;;;;10394111;28;20222;-72
2023/10/23 22:59:47;;;;;;;2.83;2.40;;;15.60;38.90;;;;;;10393273;28;20225;-72
2023/10/23 23:04:52;;;;;;;1.93;1.80;;;15.50;38.90;;;;;;10394163;28;20222;-72
2023/10/23 23:09:56;;;;;;;2.40;2.20;;;15.60;39.40;;;;;;10388884;28;20305;-72
2023/10/23 23:15:00;;;;;;;2.33;2.00;;;15.50;38.80;;;;;;10393655;28;20232;-72
2023/10/23 23:20:07;;;;;;;2.20;2.00;;;15.50;38.80;;;;;;10393418;28;20610;-72
2023/10/23 23:25:10;;;;;;;2.83;2.40;;;15.50;39.50;;;;;;10393049;28;20316;-72
2023/10/23 23:30:14;;;;;;;2.97;2.30;;;15.40;39.10;;;;;;10386143;28;20229;-72
2023/10/23 23:35:18;;;;;;;2.37;2.07;;;15.40;39.30;;;;;;10390596;28;20249;-72
2023/10/23 23:40:22;;;;;;;2.27;2.07;;;15.40;39.50;;;;;;10390092;28;20654;-72
2023/10/23 23:45:25;;;;;;;2.70;2.23;;;15.40;39.40;;;;;;10394901;28;20291;-72
2023/10/23 23:50:29;;;;;;;2.13;2.03;;;15.40;39.50;;;;;;10393154;28;20239;-72
2023/10/23 23:55:33;;;;;;;3.37;2.80;;;15.40;39.60;;;;;;10388508;28;20700;-71
